sensor_id;sensor_type;location;lat;lon;timestamp;pressure;altitude;pressure_sealevel;temperature;humidity
76694;BME280;65625;52.136;5.424;2023-04-24T00:00:59;99870.00;;;9.13;98.80
76694;BME280;65625;52.136;5.424;2023-04-24T00:03:27;99875.38;;;9.13;98.83
76694;BME280;65625;52.136;5.424;2023-04-24T00:05:55;99872.97;;;9.10;98.69
76694;BME280;65625;52.136;5.424;2023-04-24T00:08:21;99879.47;;;9.08;98.64
76694;BME280;65625;52.136;5.424;2023-04-24T00:10:49;99889.25;;;9.09;98.47
76694;BME280;65625;52.136;5.424;2023-04-24T00:13:15;99878.00;;;9.04;98.04
76694;BME280;65625;52.136;5.424;2023-04-24T00:15:42;99891.59;;;9.02;98.21
76694;BME280;65625;52.136;5.424;2023-04-24T00:18:08;99892.59;;;9.01;98.14
76694;BME280;65625;52.136;5.424;2023-04-24T00:20:35;99899.06;;;8.98;98.38
76694;BME280;65625;52.136;5.424;2023-04-24T00:23:04;99900.66;;;9.01;98.38
76694;BME280;65625;52.136;5.424;2023-04-24T00:25:30;99898.81;;;9.02;98.66
76694;BME280;65625;52.136;5.424;2023-04-24T00:27:57;99910.56;;;9.01;98.73
76694;BME280;65625;52.136;5.424;2023-04-24T00:30:24;99906.19;;;9.00;98.72
76694;BME280;65625;52.136;5.424;2023-04-24T00:32:50;99916.94;;;9.00;99.07
76694;BME280;65625;52.136;5.424;2023-04-24T00:35:17;99911.66;;;8.98;98.72
76694;BME280;65625;52.136;5.424;2023-04-24T00:37:46;99908.50;;;8.93;98.65
76694;BME280;65625;52.136;5.424;2023-04-24T00:40:12;99902.91;;;8.85;98.73
76694;BME280;65625;52.136;5.424;2023-04-24T00:42:41;99909.56;;;8.81;98.88
76694;BME280;65625;52.136;5.424;2023-04-24T00:45:09;99907.94;;;8.78;98.90
76694;BME280;65625;52.136;5.424;2023-04-24T00:47:36;99916.03;;;8.78;99.00
76694;BME280;65625;52.136;5.424;2023-04-24T00:50:06;99907.69;;;8.81;98.96
76694;BME280;65625;52.136;5.424;2023-04-24T00:52:33;99920.06;;;8.84;99.23
76694;BME280;65625;52.136;5.424;2023-04-24T00:55:00;99919.94;;;8.85;98.95
76694;BME280;65625;52.136;5.424;2023-04-24T00:57:27;99922.34;;;8.88;99.01
76694;BME280;65625;52.136;5.424;2023-04-24T00:59:53;99923.72;;;8.83;99.04
76694;BME280;65625;52.136;5.424;2023-04-24T01:02:21;99928.00;;;8.85;99.22
76694;BME280;65625;52.136;5.424;2023-04-24T01:04:50;99930.94;;;8.82;98.97
76694;BME280;65625;52.136;5.424;2023-04-24T01:07:19;99931.69;;;8.84;99.46
76694;BME280;65625;52.136;5.424;2023-04-24T01:09:48;99927.25;;;8.83;98.85
76694;BME280;65625;52.136;5.424;2023-04-24T01:12:15;99930.94;;;8.82;99.29
76694;BME280;65625;52.136;5.424;2023-04-24T01:14:43;99925.31;;;8.85;99.27
76694;BME280;65625;52.136;5.424;2023-04-24T01:17:10;99934.47;;;8.83;99.10
76694;BME280;65625;52.136;5.424;2023-04-24T01:19:38;99935.34;;;8.83;99.32
76694;BME280;65625;52.136;5.424;2023-04-24T01:22:12;99939.75;;;8.84;99.35
76694;BME280;65625;52.136;5.424;2023-04-24T01:24:41;99941.31;;;8.87;99.40
76694;BME280;65625;52.136;5.424;2023-04-24T01:27:08;99945.72;;;8.88;99.57
76694;BME280;65625;52.136;5.424;2023-04-24T01:29:35;99951.81;;;8.90;99.70
76694;BME280;65625;52.136;5.424;2023-04-24T01:32:03;99943.88;;;8.88;99.57
76694;BME280;65625;52.136;5.424;2023-04-24T01:34:30;99947.44;;;8.89;99.16
76694;BME280;65625;52.136;5.424;2023-04-24T01:36:57;99948.03;;;8.92;99.33
76694;BME280;65625;52.136;5.424;2023-04-24T01:39:24;99946.91;;;8.95;99.32
76694;BME280;65625;52.136;5.424;2023-04-24T01:41:52;99947.66;;;8.97;99.53
76694;BME280;65625;52.136;5.424;2023-04-24T01:44:20;99944.69;;;9.00;99.90
76694;BME280;65625;52.136;5.424;2023-04-24T01:46:47;99948.38;;;8.99;99.40
76694;BME280;65625;52.136;5.424;2023-04-24T01:49:14;99957.06;;;9.03;99.77
76694;BME280;65625;52.136;5.424;2023-04-24T01:51:40;99956.19;;;9.02;99.45
76694;BME280;65625;52.136;5.424;2023-04-24T01:54:07;99957.91;;;9.03;99.67
76694;BME280;65625;52.136;5.424;2023-04-24T01:56:34;99955.94;;;9.05;99.46
76694;BME280;65625;52.136;5.424;2023-04-24T01:59:04;99956.94;;;9.04;99.35
76694;BME280;65625;52.136;5.424;2023-04-24T02:01:34;99959.63;;;9.04;99.70
76694;BME280;65625;52.136;5.424;2023-04-24T02:04:03;99958.88;;;9.02;99.66
76694;BME280;65625;52.136;5.424;2023-04-24T02:06:30;99958.75;;;9.04;99.55
76694;BME280;65625;52.136;5.424;2023-04-24T02:08:59;99952.38;;;9.05;99.69
76694;BME280;65625;52.136;5.424;2023-04-24T02:11:27;99954.25;;;9.04;99.79
76694;BME280;65625;52.136;5.424;2023-04-24T02:13:54;99959.50;;;9.06;99.62
76694;BME280;65625;52.136;5.424;2023-04-24T02:16:20;99952.38;;;9.05;99.68
76694;BME280;65625;52.136;5.424;2023-04-24T02:18:47;99950.69;;;9.04;99.67
76694;BME280;65625;52.136;5.424;2023-04-24T02:21:13;99955.94;;;9.05;99.40
76694;BME280;65625;52.136;5.424;2023-04-24T02:23:40;99951.53;;;9.04;99.71
76694;BME280;65625;52.136;5.424;2023-04-24T02:26:07;99958.03;;;9.02;99.71
76694;BME280;65625;52.136;5.424;2023-04-24T02:28:33;99959.03;;;9.01;99.59
76694;BME280;65625;52.136;5.424;2023-04-24T02:31:00;99954.72;;;8.98;99.37
76694;BME280;65625;52.136;5.424;2023-04-24T02:33:26;99953.28;;;8.94;99.35
76694;BME280;65625;52.136;5.424;2023-04-24T02:35:53;99957.41;;;8.98;99.71
76694;BME280;65625;52.136;5.424;2023-04-24T02:38:19;99952.91;;;8.98;99.67
76694;BME280;65625;52.136;5.424;2023-04-24T02:40:46;99952.03;;;8.98;99.55
76694;BME280;65625;52.136;5.424;2023-04-24T02:43:12;99952.28;;;8.95;99.48
76694;BME280;65625;52.136;5.424;2023-04-24T02:45:39;99958.69;;;8.94;99.60
76694;BME280;65625;52.136;5.424;2023-04-24T02:48:06;99955.13;;;8.93;99.43
76694;BME280;65625;52.136;5.424;2023-04-24T02:50:35;99961.38;;;8.94;99.44
76694;BME280;65625;52.136;5.424;2023-04-24T02:53:01;99957.94;;;8.92;99.65
76694;BME280;65625;52.136;5.424;2023-04-24T02:55:28;99955.13;;;8.93;99.64
76694;BME280;65625;52.136;5.424;2023-04-24T02:57:55;99959.41;;;8.96;99.87
76694;BME280;65625;52.136;5.424;2023-04-24T03:00:22;99963.66;;;8.98;99.79
76694;BME280;65625;52.136;5.424;2023-04-24T03:02:49;99958.16;;;9.00;99.93
76694;BME280;65625;52.136;5.424;2023-04-24T03:05:16;99957.19;;;9.01;99.67
76694;BME280;65625;52.136;5.424;2023-04-24T03:07:42;99954.25;;;9.04;99.78
76694;BME280;65625;52.136;5.424;2023-04-24T03:10:09;99952.28;;;9.06;99.75
76694;BME280;65625;52.136;5.424;2023-04-24T03:12:36;99956.66;;;9.07;99.78
76694;BME280;65625;52.136;5.424;2023-04-24T03:15:02;99957.53;;;9.08;99.84
76694;BME280;65625;52.136;5.424;2023-04-24T03:17:29;99964.28;;;9.02;99.81
76694;BME280;65625;52.136;5.424;2023-04-24T03:19:56;99955.00;;;8.95;99.93
76694;BME280;65625;52.136;5.424;2023-04-24T03:22:22;99957.31;;;9.00;99.96
76694;BME280;65625;52.136;5.424;2023-04-24T03:24:49;99950.69;;;9.04;99.96
76694;BME280;65625;52.136;5.424;2023-04-24T03:27:19;99951.81;;;9.01;99.86
76694;BME280;65625;52.136;5.424;2023-04-24T03:29:53;99955.34;;;9.02;100.00
76694;BME280;65625;52.136;5.424;2023-04-24T03:32:29;99958.03;;;9.02;99.88
76694;BME280;65625;52.136;5.424;2023-04-24T03:34:56;99961.31;;;9.05;99.92
76694;BME280;65625;52.136;5.424;2023-04-24T03:37:23;99962.44;;;9.03;100.00
76694;BME280;65625;52.136;5.424;2023-04-24T03:40:01;99967.56;;;9.06;99.96
76694;BME280;65625;52.136;5.424;2023-04-24T03:42:28;99969.25;;;9.07;100.00
76694;BME280;65625;52.136;5.424;2023-04-24T03:44:55;99960.59;;;9.03;99.92
76694;BME280;65625;52.136;5.424;2023-04-24T03:47:26;99961.97;;;8.98;99.92
76694;BME280;65625;52.136;5.424;2023-04-24T03:49:55;99958.53;;;8.95;100.00
76694;BME280;65625;52.136;5.424;2023-04-24T03:52:22;99965.50;;;8.98;99.90
76694;BME280;65625;52.136;5.424;2023-04-24T03:54:50;99968.19;;;8.98;99.85
76694;BME280;65625;52.136;5.424;2023-04-24T03:57:17;99964.53;;;8.99;99.63
76694;BME280;65625;52.136;5.424;2023-04-24T03:59:56;99959.41;;;8.96;99.93
76694;BME280;65625;52.136;5.424;2023-04-24T04:02:24;99968.19;;;8.98;100.00
76694;BME280;65625;52.136;5.424;2023-04-24T04:04:51;99972.47;;;9.01;100.00
76694;BME280;65625;52.136;5.424;2023-04-24T04:07:17;99976.25;;;8.98;100.00
76694;BME280;65625;52.136;5.424;2023-04-24T04:09:44;99980.34;;;8.92;99.98
76694;BME280;65625;52.136;5.424;2023-04-24T04:12:10;99978.25;;;8.85;99.77
76694;BME280;65625;52.136;5.424;2023-04-24T04:14:38;99985.59;;;8.83;99.88
76694;BME280;65625;52.136;5.424;2023-04-24T04:17:04;99977.91;;;8.78;100.00
76694;BME280;65625;52.136;5.424;2023-04-24T04:19:31;99982.41;;;8.78;99.90
76694;BME280;65625;52.136;5.424;2023-04-24T04:21:58;99989.66;;;8.77;99.83
76694;BME280;65625;52.136;5.424;2023-04-24T04:24:35;99988.19;;;8.73;99.66
76694;BME280;65625;52.136;5.424;2023-04-24T04:27:04;99987.94;;;8.76;99.93
76694;BME280;65625;52.136;5.424;2023-04-24T04:29:38;99991.09;;;8.81;99.57
76694;BME280;65625;52.136;5.424;2023-04-24T04:32:08;99993.78;;;8.81;100.00
76694;BME280;65625;52.136;5.424;2023-04-24T04:34:35;99997.97;;;8.85;100.00
76694;BME280;65625;52.136;5.424;2023-04-24T04:37:04;99994.28;;;8.86;99.97
76694;BME280;65625;52.136;5.424;2023-04-24T04:39:45;99995.88;;;8.89;100.00
76694;BME280;65625;52.136;5.424;2023-04-24T04:42:17;100009.69;;;8.95;100.00
76694;BME280;65625;52.136;5.424;2023-04-24T04:44:45;100013.84;;;9.00;100.00
76694;BME280;65625;52.136;5.424;2023-04-24T04:47:17;100015.53;;;9.01;100.00
76694;BME280;65625;52.136;5.424;2023-04-24T04:49:44;100019.09;;;9.01;100.00
76694;BME280;65625;52.136;5.424;2023-04-24T04:52:18;100023.50;;;9.02;100.00
76694;BME280;65625;52.136;5.424;2023-04-24T04:54:48;100019.44;;;9.08;100.00
76694;BME280;65625;52.136;5.424;2023-04-24T04:57:14;100027.41;;;9.09;100.00
76694;BME280;65625;52.136;5.424;2023-04-24T04:59:41;100021.28;;;9.07;100.00
76694;BME280;65625;52.136;5.424;2023-04-24T05:02:13;100030.22;;;9.08;100.00
76694;BME280;65625;52.136;5.424;2023-04-24T05:04:40;100040.00;;;9.09;100.00
76694;BME280;65625;52.136;5.424;2023-04-24T05:07:07;100033.38;;;9.13;100.00
76694;BME280;65625;52.136;5.424;2023-04-24T05:09:37;100050.84;;;9.18;100.00
76694;BME280;65625;52.136;5.424;2023-04-24T05:12:05;100048.53;;;9.14;100.00
76694;BME280;65625;52.136;5.424;2023-04-24T05:14:36;100042.69;;;9.09;100.00
76694;BME280;65625;52.136;5.424;2023-04-24T05:17:03;100047.56;;;9.15;100.00
76694;BME280;65625;52.136;5.424;2023-04-24T05:19:30;100046.94;;;9.22;100.00
76694;BME280;65625;52.136;5.424;2023-04-24T05:21:59;100057.44;;;9.25;100.00
76694;BME280;65625;52.136;5.424;2023-04-24T05:24:30;100060.50;;;9.32;100.00
76694;BME280;65625;52.136;5.424;2023-04-24T05:27:07;100069.56;;;9.31;100.00
76694;BME280;65625;52.136;5.424;2023-04-24T05:29:38;100070.53;;;9.30;100.00
76694;BME280;65625;52.136;5.424;2023-04-24T05:32:05;100077.25;;;9.35;100.00
76694;BME280;65625;52.136;5.424;2023-04-24T05:34:32;100078.84;;;9.38;100.00
76694;BME280;65625;52.136;5.424;2023-04-24T05:36:58;100081.41;;;9.39;100.00
76694;BME280;65625;52.136;5.424;2023-04-24T05:39:25;100087.75;;;9.38;99.95
76694;BME280;65625;52.136;5.424;2023-04-24T05:41:53;100092.81;;;9.32;99.90
76694;BME280;65625;52.136;5.424;2023-04-24T05:44:19;100100.41;;;9.27;99.67
76694;BME280;65625;52.136;5.424;2023-04-24T05:46:46;100108.47;;;9.27;99.74
76694;BME280;65625;52.136;5.424;2023-04-24T05:49:13;100105.06;;;9.25;99.78
76694;BME280;65625;52.136;5.424;2023-04-24T05:51:40;100108.13;;;9.20;99.57
76694;BME280;65625;52.136;5.424;2023-04-24T05:54:07;100113.53;;;9.09;99.82
76694;BME280;65625;52.136;5.424;2023-04-24T05:56:34;100115.09;;;9.12;99.82
76694;BME280;65625;52.136;5.424;2023-04-24T05:59:03;100129.06;;;9.06;99.89
76694;BME280;65625;52.136;5.424;2023-04-24T06:01:30;100133.09;;;9.00;99.72
76694;BME280;65625;52.136;5.424;2023-04-24T06:04:05;100134.97;;;9.00;99.79
76694;BME280;65625;52.136;5.424;2023-04-24T06:06:34;100133.34;;;8.97;99.79
76694;BME280;65625;52.136;5.424;2023-04-24T06:09:01;100141.31;;;8.98;100.00
76694;BME280;65625;52.136;5.424;2023-04-24T06:11:28;100147.56;;;8.99;100.00
76694;BME280;65625;52.136;5.424;2023-04-24T06:13:55;100151.34;;;8.96;100.00
76694;BME280;65625;52.136;5.424;2023-04-24T06:16:37;100155.03;;;8.84;100.00
76694;BME280;65625;52.136;5.424;2023-04-24T06:19:14;100153.78;;;8.77;100.00
76694;BME280;65625;52.136;5.424;2023-04-24T06:21:41;100164.06;;;8.72;100.00
76694;BME280;65625;52.136;5.424;2023-04-24T06:24:07;100170.19;;;8.74;100.00
76694;BME280;65625;52.136;5.424;2023-04-24T06:26:34;100171.50;;;8.69;100.00
76694;BME280;65625;52.136;5.424;2023-04-24T06:29:00;100181.03;;;8.62;100.00
76694;BME280;65625;52.136;5.424;2023-04-24T06:31:27;100184.19;;;8.56;100.00
76694;BME280;65625;52.136;5.424;2023-04-24T06:33:53;100192.03;;;8.59;100.00
76694;BME280;65625;52.136;5.424;2023-04-24T06:36:20;100188.84;;;8.54;100.00
76694;BME280;65625;52.136;5.424;2023-04-24T06:38:46;100197.78;;;8.54;100.00
76694;BME280;65625;52.136;5.424;2023-04-24T06:41:13;100199.34;;;8.57;100.00
76694;BME280;65625;52.136;5.424;2023-04-24T06:43:39;100212.91;;;8.55;100.00
76694;BME280;65625;52.136;5.424;2023-04-24T06:46:06;100221.63;;;8.59;100.00
76694;BME280;65625;52.136;5.424;2023-04-24T06:48:33;100230.31;;;8.62;100.00
76694;BME280;65625;52.136;5.424;2023-04-24T06:50:59;100225.69;;;8.64;100.00
76694;BME280;65625;52.136;5.424;2023-04-24T06:53:26;100242.88;;;8.62;100.00
76694;BME280;65625;52.136;5.424;2023-04-24T06:55:53;100241.81;;;8.64;100.00
76694;BME280;65625;52.136;5.424;2023-04-24T06:58:20;100245.81;;;8.59;100.00
76694;BME280;65625;52.136;5.424;2023-04-24T07:00:47;100252.56;;;8.64;100.00
76694;BME280;65625;52.136;5.424;2023-04-24T07:03:13;100257.84;;;8.66;100.00
76694;BME280;65625;52.136;5.424;2023-04-24T07:05:40;100269.66;;;8.63;100.00
76694;BME280;65625;52.136;5.424;2023-04-24T07:08:07;100274.31;;;8.61;100.00
76694;BME280;65625;52.136;5.424;2023-04-24T07:10:37;100278.97;;;8.59;100.00
76694;BME280;65625;52.136;5.424;2023-04-24T07:13:04;100285.78;;;8.52;100.00
76694;BME280;65625;52.136;5.424;2023-04-24T07:15:30;100295.44;;;8.55;100.00
76694;BME280;65625;52.136;5.424;2023-04-24T07:17:58;100299.00;;;8.55;100.00
76694;BME280;65625;52.136;5.424;2023-04-24T07:20:25;100315.13;;;8.55;100.00
76694;BME280;65625;52.136;5.424;2023-04-24T07:22:52;100318.28;;;8.49;100.00
76694;BME280;65625;52.136;5.424;2023-04-24T07:25:20;100334.00;;;8.43;100.00
76694;BME280;65625;52.136;5.424;2023-04-24T07:27:46;100335.09;;;8.40;100.00
76694;BME280;65625;52.136;5.424;2023-04-24T07:30:14;100334.22;;;8.40;100.00
76694;BME280;65625;52.136;5.424;2023-04-24T07:32:40;100339.38;;;8.43;100.00
76694;BME280;65625;52.136;5.424;2023-04-24T07:35:07;100337.56;;;8.43;100.00
76694;BME280;65625;52.136;5.424;2023-04-24T07:37:36;100351.63;;;8.47;100.00
76694;BME280;65625;52.136;5.424;2023-04-24T07:40:03;100355.63;;;8.41;100.00
76694;BME280;65625;52.136;5.424;2023-04-24T07:42:30;100369.72;;;8.45;100.00
76694;BME280;65625;52.136;5.424;2023-04-24T07:45:01;100371.88;;;8.40;100.00
76694;BME280;65625;52.136;5.424;2023-04-24T07:47:27;100377.16;;;8.41;100.00
76694;BME280;65625;52.136;5.424;2023-04-24T07:49:54;100380.34;;;8.46;100.00
76694;BME280;65625;52.136;5.424;2023-04-24T07:52:21;100382.72;;;8.51;100.00
76694;BME280;65625;52.136;5.424;2023-04-24T07:54:47;100389.69;;;8.53;100.00
76694;BME280;65625;52.136;5.424;2023-04-24T07:57:14;100385.19;;;8.54;100.00
76694;BME280;65625;52.136;5.424;2023-04-24T07:59:40;100401.22;;;8.55;99.80
76694;BME280;65625;52.136;5.424;2023-04-24T08:02:07;100399.16;;;8.59;99.81
76694;BME280;65625;52.136;5.424;2023-04-24T08:04:34;100402.13;;;8.67;99.99
76694;BME280;65625;52.136;5.424;2023-04-24T08:07:01;100403.63;;;8.71;99.99
76694;BME280;65625;52.136;5.424;2023-04-24T08:09:27;100423.53;;;8.68;99.97
76694;BME280;65625;52.136;5.424;2023-04-24T08:11:54;100429.03;;;8.67;99.96
76694;BME280;65625;52.136;5.424;2023-04-24T08:14:20;100440.03;;;8.51;99.67
76694;BME280;65625;52.136;5.424;2023-04-24T08:16:47;100429.34;;;8.39;99.48
76694;BME280;65625;52.136;5.424;2023-04-24T08:19:13;100438.16;;;8.41;99.14
76694;BME280;65625;52.136;5.424;2023-04-24T08:21:40;100440.84;;;8.41;99.54
76694;BME280;65625;52.136;5.424;2023-04-24T08:24:06;100463.66;;;8.35;99.43
76694;BME280;65625;52.136;5.424;2023-04-24T08:26:34;100468.09;;;8.24;99.50
76694;BME280;65625;52.136;5.424;2023-04-24T08:29:01;100474.59;;;8.20;99.52
76694;BME280;65625;52.136;5.424;2023-04-24T08:31:27;100478.50;;;8.16;99.75
76694;BME280;65625;52.136;5.424;2023-04-24T08:33:54;100485.47;;;8.18;99.95
76694;BME280;65625;52.136;5.424;2023-04-24T08:36:20;100484.09;;;8.25;99.83
76694;BME280;65625;52.136;5.424;2023-04-24T08:38:49;100495.06;;;8.35;100.00
76694;BME280;65625;52.136;5.424;2023-04-24T08:41:15;100499.03;;;8.42;100.00
76694;BME280;65625;52.136;5.424;2023-04-24T08:43:45;100497.06;;;8.56;100.00
76694;BME280;65625;52.136;5.424;2023-04-24T08:46:13;100506.81;;;8.70;99.85
76694;BME280;65625;52.136;5.424;2023-04-24T08:48:39;100504.09;;;8.82;100.00
76694;BME280;65625;52.136;5.424;2023-04-24T08:51:07;100507.72;;;8.94;99.88
76694;BME280;65625;52.136;5.424;2023-04-24T08:53:35;100512.72;;;9.11;99.58
76694;BME280;65625;52.136;5.424;2023-04-24T08:56:02;100518.31;;;9.08;97.96
76694;BME280;65625;52.136;5.424;2023-04-24T08:58:29;100527.38;;;9.07;98.24
76694;BME280;65625;52.136;5.424;2023-04-24T09:00:57;100534.56;;;9.07;98.19
76694;BME280;65625;52.136;5.424;2023-04-24T09:03:27;100536.72;;;9.14;98.04
76694;BME280;65625;52.136;5.424;2023-04-24T09:05:55;100531.22;;;9.16;97.56
76694;BME280;65625;52.136;5.424;2023-04-24T09:08:24;100536.75;;;9.02;96.41
76694;BME280;65625;52.136;5.424;2023-04-24T09:10:51;100542.03;;;9.03;96.75
76694;BME280;65625;52.136;5.424;2023-04-24T09:13:21;100542.88;;;9.04;96.49
76694;BME280;65625;52.136;5.424;2023-04-24T09:15:48;100546.34;;;9.06;95.72
76694;BME280;65625;52.136;5.424;2023-04-24T09:18:15;100553.88;;;9.01;94.79
76694;BME280;65625;52.136;5.424;2023-04-24T09:21:02;100561.59;;;9.18;94.83
76694;BME280;65625;52.136;5.424;2023-04-24T09:23:30;100553.28;;;9.44;95.13
76694;BME280;65625;52.136;5.424;2023-04-24T09:25:58;100569.19;;;9.71;95.29
76694;BME280;65625;52.136;5.424;2023-04-24T09:28:29;100570.72;;;9.86;94.91
76694;BME280;65625;52.136;5.424;2023-04-24T09:31:26;100585.25;;;10.07;92.70
76694;BME280;65625;52.136;5.424;2023-04-24T09:34:01;100576.16;;;10.43;92.11
76694;BME280;65625;52.136;5.424;2023-04-24T09:36:40;100574.88;;;11.24;91.77
76694;BME280;65625;52.136;5.424;2023-04-24T09:39:09;100591.16;;;11.44;90.22
76694;BME280;65625;52.136;5.424;2023-04-24T09:42:06;100585.91;;;11.32;89.44
76694;BME280;65625;52.136;5.424;2023-04-24T09:44:34;100585.50;;;11.47;87.99
76694;BME280;65625;52.136;5.424;2023-04-24T09:47:00;100595.19;;;11.61;87.96
76694;BME280;65625;52.136;5.424;2023-04-24T09:49:28;100604.38;;;11.59;88.75
76694;BME280;65625;52.136;5.424;2023-04-24T09:52:09;100598.84;;;11.17;87.96
76694;BME280;65625;52.136;5.424;2023-04-24T09:54:37;100618.38;;;10.77;89.23
76694;BME280;65625;52.136;5.424;2023-04-24T09:57:04;100614.38;;;10.37;88.64
76694;BME280;65625;52.136;5.424;2023-04-24T09:59:31;100623.09;;;10.05;88.18
76694;BME280;65625;52.136;5.424;2023-04-24T10:01:57;100623.09;;;9.71;87.48
76694;BME280;65625;52.136;5.424;2023-04-24T10:04:27;100622.22;;;9.70;89.01
76694;BME280;65625;52.136;5.424;2023-04-24T10:06:55;100627.72;;;9.92;89.44
76694;BME280;65625;52.136;5.424;2023-04-24T10:09:24;100635.69;;;10.17;89.10
76694;BME280;65625;52.136;5.424;2023-04-24T10:11:53;100630.25;;;10.63;89.24
76694;BME280;65625;52.136;5.424;2023-04-24T10:14:22;100642.06;;;10.84;86.75
76694;BME280;65625;52.136;5.424;2023-04-24T10:16:52;100635.66;;;10.63;86.21
76694;BME280;65625;52.136;5.424;2023-04-24T10:19:20;100640.97;;;10.65;86.36
76694;BME280;65625;52.136;5.424;2023-04-24T10:21:47;100644.50;;;10.65;86.98
76694;BME280;65625;52.136;5.424;2023-04-24T10:24:16;100644.50;;;10.54;83.85
76694;BME280;65625;52.136;5.424;2023-04-24T10:26:43;100650.22;;;10.39;85.10
76694;BME280;65625;52.136;5.424;2023-04-24T10:29:11;100660.75;;;10.42;85.35
76694;BME280;65625;52.136;5.424;2023-04-24T10:31:39;100658.84;;;10.66;82.65
76694;BME280;65625;52.136;5.424;2023-04-24T10:34:07;100657.91;;;10.89;84.27
76694;BME280;65625;52.136;5.424;2023-04-24T10:36:35;100652.09;;;11.37;84.20
76694;BME280;65625;52.136;5.424;2023-04-24T10:39:06;100655.28;;;11.42;81.58
76694;BME280;65625;52.136;5.424;2023-04-24T10:41:37;100653.50;;;11.86;82.88
76694;BME280;65625;52.136;5.424;2023-04-24T10:44:07;100659.84;;;12.68;79.02
76694;BME280;65625;52.136;5.424;2023-04-24T10:46:34;100660.09;;;13.37;75.91
76694;BME280;65625;52.136;5.424;2023-04-24T10:49:05;100669.19;;;13.36;74.75
76694;BME280;65625;52.136;5.424;2023-04-24T10:51:52;100673.91;;;12.42;75.80
76694;BME280;65625;52.136;5.424;2023-04-24T10:56:52;100681.47;;;11.09;77.89
76694;BME280;65625;52.136;5.424;2023-04-24T10:59:26;100679.97;;;10.72;82.69
76694;BME280;65625;52.136;5.424;2023-04-24T11:01:54;100691.91;;;10.91;81.56
76694;BME280;65625;52.136;5.424;2023-04-24T11:04:32;100691.38;;;10.64;81.76
76694;BME280;65625;52.136;5.424;2023-04-24T11:06:59;100695.63;;;10.45;82.64
76694;BME280;65625;52.136;5.424;2023-04-24T11:09:28;100693.88;;;10.33;83.47
76694;BME280;65625;52.136;5.424;2023-04-24T11:12:04;100692.44;;;10.16;84.26
76694;BME280;65625;52.136;5.424;2023-04-24T11:17:36;100714.09;;;9.67;86.45
76694;BME280;65625;52.136;5.424;2023-04-24T11:20:09;100726.41;;;9.59;87.01
76694;BME280;65625;52.136;5.424;2023-04-24T11:22:55;100726.34;;;9.48;87.95
76694;BME280;65625;52.136;5.424;2023-04-24T11:25:23;100719.31;;;9.45;88.16
76694;BME280;65625;52.136;5.424;2023-04-24T11:28:03;100736.00;;;9.63;87.55
76694;BME280;65625;52.136;5.424;2023-04-24T11:30:31;100725.66;;;10.16;88.27
76694;BME280;65625;52.136;5.424;2023-04-24T11:33:02;100731.25;;;10.72;86.00
76694;BME280;65625;52.136;5.424;2023-04-24T11:35:29;100731.34;;;11.71;85.08
76694;BME280;65625;52.136;5.424;2023-04-24T11:37:56;100712.88;;;12.71;80.56
76694;BME280;65625;52.136;5.424;2023-04-24T11:40:26;100722.81;;;13.32;78.67
76694;BME280;65625;52.136;5.424;2023-04-24T11:42:53;100718.81;;;12.86;76.44
76694;BME280;65625;52.136;5.424;2023-04-24T11:45:31;100732.53;;;11.89;77.88
76694;BME280;65625;52.136;5.424;2023-04-24T11:47:58;100739.31;;;11.95;79.24
76694;BME280;65625;52.136;5.424;2023-04-24T11:50:26;100734.75;;;11.84;80.26
76694;BME280;65625;52.136;5.424;2023-04-24T11:52:54;100734.47;;;12.41;81.63
76694;BME280;65625;52.136;5.424;2023-04-24T11:57:50;100743.59;;;13.52;72.99
76694;BME280;65625;52.136;5.424;2023-04-24T12:00:21;100741.59;;;13.84;73.10
76694;BME280;65625;52.136;5.424;2023-04-24T12:02:49;100741.16;;;13.89;72.98
76694;BME280;65625;52.136;5.424;2023-04-24T12:05:21;100750.56;;;14.34;73.32
76694;BME280;65625;52.136;5.424;2023-04-24T12:07:48;100749.94;;;13.62;71.88
76694;BME280;65625;52.136;5.424;2023-04-24T12:10:20;100761.19;;;12.87;72.66
76694;BME280;65625;52.136;5.424;2023-04-24T12:12:47;100771.66;;;12.28;72.54
76694;BME280;65625;52.136;5.424;2023-04-24T12:15:15;100771.28;;;11.68;71.43
76694;BME280;65625;52.136;5.424;2023-04-24T12:17:42;100776.69;;;11.68;76.89
76694;BME280;65625;52.136;5.424;2023-04-24T12:20:09;100774.56;;;11.60;76.29
76694;BME280;65625;52.136;5.424;2023-04-24T12:22:54;100787.47;;;11.45;76.23
76694;BME280;65625;52.136;5.424;2023-04-24T12:25:29;100796.41;;;11.13;76.11
76694;BME280;65625;52.136;5.424;2023-04-24T12:30:33;100797.56;;;10.52;77.64
76694;BME280;65625;52.136;5.424;2023-04-24T12:33:02;100793.38;;;10.48;78.14
76694;BME280;65625;52.136;5.424;2023-04-24T12:35:31;100798.63;;;10.73;78.15
76694;BME280;65625;52.136;5.424;2023-04-24T12:38:06;100796.44;;;11.24;77.28
76694;BME280;65625;52.136;5.424;2023-04-24T12:40:34;100804.03;;;11.30;76.63
76694;BME280;65625;52.136;5.424;2023-04-24T12:43:00;100808.56;;;11.07;76.29
76694;BME280;65625;52.136;5.424;2023-04-24T12:45:27;100803.69;;;10.78;75.55
76694;BME280;65625;52.136;5.424;2023-04-24T12:47:54;100813.72;;;10.65;75.72
76694;BME280;65625;52.136;5.424;2023-04-24T12:50:20;100820.78;;;10.55;77.38
76694;BME280;65625;52.136;5.424;2023-04-24T12:52:47;100822.31;;;10.46;77.09
76694;BME280;65625;52.136;5.424;2023-04-24T12:55:13;100829.19;;;10.50;77.11
76694;BME280;65625;52.136;5.424;2023-04-24T12:57:40;100821.19;;;10.61;78.10
76694;BME280;65625;52.136;5.424;2023-04-24T13:00:08;100830.19;;;10.49;77.74
76694;BME280;65625;52.136;5.424;2023-04-24T13:02:35;100833.75;;;10.26;78.35
76694;BME280;65625;52.136;5.424;2023-04-24T13:05:02;100852.56;;;10.02;80.93
76694;BME280;65625;52.136;5.424;2023-04-24T13:07:28;100848.81;;;9.80;80.86
76694;BME280;65625;52.136;5.424;2023-04-24T13:09:55;100856.59;;;9.72;82.70
76694;BME280;65625;52.136;5.424;2023-04-24T13:12:23;100856.34;;;9.87;83.46
76694;BME280;65625;52.136;5.424;2023-04-24T13:14:53;100856.09;;;10.28;83.86